Nanaimo Airport
CYCD : now visible

Airfield :











YOU CAN JOIN US ON...

 
LOGIN :

Register | Disclaimer

   EN    FR    IT 

 









Legend :    VFR   Marginal VFR   IFR   Intensive IFR   Very Intensive IFR
Visi :
Ceiling :
>= 8 km
>= 3000ft
5 to 8 km
1000 to 3000 ft
1500m to 5 km
500 to 1000 ft
800 to 1500m
200 to 500 ft
< 800m
< 200 ft
Symbols :   Thunderstorms  Fog  Heavy snow  Heavy precipitations  Wind > 20 kt







- Airport Elevation : 93 ft
- IATA code : YCD


CYCD - Nanaimo

CURRENT METAR :
  • 211600Z 12003KT 100V170 15SM FEW018 BKN027 OVC045 14/12 A3012 RMK CF2SC4SC2 SLP200

EXPIRED METARs :
  • 211500Z 00000KT 20SM SCT029 BKN040 BKN230 12/12 A3012 RMK SC4SC2CI1 SLP203

TAF TAF CYCD
Valid from the 21 at 15:00 until the 22 at 03:00 UTC


211438Z 2115/2203 VRB03KT P6SM SCT020 BKN030
TEMPO 2115/2121 BKN020
FM212100 10008KT P6SM SCT020 BKN050
TEMPO 2121/2203 P6SM -SHRA BKN020
BECMG 2201/2203 14008KT RMK NXT FCST BY 211800Z
No reported NOTAMs for that airfield.



MET'MAP, your aeronautical weather chart ! - Copyright ORBIFLY December 2007 - Disclaimer

ORBIFLY MET'MAP TEAM :

Programming & Development : Alexandra Zaïnal
Concept & Development : Baudouin d'Aumeries
Co-Development & Prog : Marc-Olivier Méhu
Technical & hardware support : Manuel Goepfert

Contact : metmap@orbifly.com




SOURCES & CREDITS :

   NOAA       Earth
Advisory